sensor_id;sensor_type;location;lat;lon;timestamp;temperature;humidity
75155;HTU21D;63735;44.730;37.818;2023-05-16T00:00:51;11.38;78.72
75155;HTU21D;63735;44.730;37.818;2023-05-16T00:03:20;11.34;78.73
75155;HTU21D;63735;44.730;37.818;2023-05-16T00:05:46;11.32;78.75
75155;HTU21D;63735;44.730;37.818;2023-05-16T00:08:12;11.29;78.79
75155;HTU21D;63735;44.730;37.818;2023-05-16T00:10:38;11.24;78.80
75155;HTU21D;63735;44.730;37.818;2023-05-16T00:13:04;11.22;78.89
75155;HTU21D;63735;44.730;37.818;2023-05-16T00:15:31;11.23;78.85
75155;HTU21D;63735;44.730;37.818;2023-05-16T00:17:58;11.22;78.84
75155;HTU21D;63735;44.730;37.818;2023-05-16T00:20:25;11.24;78.82
75155;HTU21D;63735;44.730;37.818;2023-05-16T00:22:52;11.23;78.77
75155;HTU21D;63735;44.730;37.818;2023-05-16T00:25:18;11.19;78.71
75155;HTU21D;63735;44.730;37.818;2023-05-16T00:27:44;11.17;78.69
75155;HTU21D;63735;44.730;37.818;2023-05-16T00:30:11;11.16;78.69
75155;HTU21D;63735;44.730;37.818;2023-05-16T00:32:37;11.12;78.67
75155;HTU21D;63735;44.730;37.818;2023-05-16T00:35:04;11.07;78.70
75155;HTU21D;63735;44.730;37.818;2023-05-16T00:37:30;11.03;78.74
75155;HTU21D;63735;44.730;37.818;2023-05-16T00:39:56;10.98;78.72
75155;HTU21D;63735;44.730;37.818;2023-05-16T00:42:21;10.98;78.80
75155;HTU21D;63735;44.730;37.818;2023-05-16T00:44:47;10.98;78.82
75155;HTU21D;63735;44.730;37.818;2023-05-16T00:47:14;10.98;78.85
75155;HTU21D;63735;44.730;37.818;2023-05-16T00:49:41;11.03;78.81
75155;HTU21D;63735;44.730;37.818;2023-05-16T00:52:07;11.02;78.75
75155;HTU21D;63735;44.730;37.818;2023-05-16T00:54:33;10.99;78.76
75155;HTU21D;63735;44.730;37.818;2023-05-16T00:56:59;10.96;78.83
75155;HTU21D;63735;44.730;37.818;2023-05-16T00:59:26;10.96;78.87
75155;HTU21D;63735;44.730;37.818;2023-05-16T01:01:52;10.98;78.85
75155;HTU21D;63735;44.730;37.818;2023-05-16T01:04:18;10.98;78.82
75155;HTU21D;63735;44.730;37.818;2023-05-16T01:06:45;11.00;78.86
75155;HTU21D;63735;44.730;37.818;2023-05-16T01:09:11;10.99;78.85
75155;HTU21D;63735;44.730;37.818;2023-05-16T01:11:50;10.98;78.87
75155;HTU21D;63735;44.730;37.818;2023-05-16T01:23:18;10.89;79.01
75155;HTU21D;63735;44.730;37.818;2023-05-16T01:26:07;10.94;78.92
75155;HTU21D;63735;44.730;37.818;2023-05-16T01:28:33;10.96;78.85
75155;HTU21D;63735;44.730;37.818;2023-05-16T01:31:00;10.92;78.86
75155;HTU21D;63735;44.730;37.818;2023-05-16T01:33:26;10.86;78.93
75155;HTU21D;63735;44.730;37.818;2023-05-16T01:38:35;10.75;79.08
75155;HTU21D;63735;44.730;37.818;2023-05-16T01:41:26;10.72;79.19
75155;HTU21D;63735;44.730;37.818;2023-05-16T01:43:58;10.72;79.10
75155;HTU21D;63735;44.730;37.818;2023-05-16T01:46:26;10.69;79.14
75155;HTU21D;63735;44.730;37.818;2023-05-16T01:49:19;10.66;79.33
75155;HTU21D;63735;44.730;37.818;2023-05-16T01:51:53;10.67;79.23
75155;HTU21D;63735;44.730;37.818;2023-05-16T01:54:23;10.68;79.18
75155;HTU21D;63735;44.730;37.818;2023-05-16T01:56:53;10.72;79.16
75155;HTU21D;63735;44.730;37.818;2023-05-16T01:59:21;10.75;79.09
75155;HTU21D;63735;44.730;37.818;2023-05-16T02:01:48;10.80;79.11
75155;HTU21D;63735;44.730;37.818;2023-05-16T02:04:14;10.80;79.08
75155;HTU21D;63735;44.730;37.818;2023-05-16T02:06:41;10.75;79.09
75155;HTU21D;63735;44.730;37.818;2023-05-16T02:09:07;10.73;79.14
75155;HTU21D;63735;44.730;37.818;2023-05-16T02:11:33;10.70;79.17
75155;HTU21D;63735;44.730;37.818;2023-05-16T02:13:59;10.70;79.23
75155;HTU21D;63735;44.730;37.818;2023-05-16T02:16:25;10.68;79.25
75155;HTU21D;63735;44.730;37.818;2023-05-16T02:18:51;10.66;79.27
75155;HTU21D;63735;44.730;37.818;2023-05-16T02:21:17;10.69;79.35
75155;HTU21D;63735;44.730;37.818;2023-05-16T02:23:43;10.71;79.37
75155;HTU21D;63735;44.730;37.818;2023-05-16T02:26:09;10.73;79.39
75155;HTU21D;63735;44.730;37.818;2023-05-16T02:28:35;10.78;79.30
75155;HTU21D;63735;44.730;37.818;2023-05-16T02:31:01;10.82;79.29
75155;HTU21D;63735;44.730;37.818;2023-05-16T02:33:28;10.86;79.27
75155;HTU21D;63735;44.730;37.818;2023-05-16T02:35:54;10.89;79.27
75155;HTU21D;63735;44.730;37.818;2023-05-16T02:38:20;10.93;79.30
75155;HTU21D;63735;44.730;37.818;2023-05-16T02:40:47;10.97;79.28
75155;HTU21D;63735;44.730;37.818;2023-05-16T02:43:13;11.03;79.27
75155;HTU21D;63735;44.730;37.818;2023-05-16T02:45:41;11.11;79.24
75155;HTU21D;63735;44.730;37.818;2023-05-16T02:48:08;11.17;79.15
75155;HTU21D;63735;44.730;37.818;2023-05-16T02:50:34;11.22;79.10
75155;HTU21D;63735;44.730;37.818;2023-05-16T02:53:00;11.30;79.07
75155;HTU21D;63735;44.730;37.818;2023-05-16T02:55:27;11.39;79.04
75155;HTU21D;63735;44.730;37.818;2023-05-16T02:57:53;11.47;79.02
75155;HTU21D;63735;44.730;37.818;2023-05-16T03:00:20;11.55;79.01
75155;HTU21D;63735;44.730;37.818;2023-05-16T03:02:47;11.64;78.94
75155;HTU21D;63735;44.730;37.818;2023-05-16T03:05:13;11.75;78.87
75155;HTU21D;63735;44.730;37.818;2023-05-16T03:07:40;11.88;78.82
75155;HTU21D;63735;44.730;37.818;2023-05-16T03:10:06;12.01;78.76
75155;HTU21D;63735;44.730;37.818;2023-05-16T03:12:32;12.17;78.63
75155;HTU21D;63735;44.730;37.818;2023-05-16T03:14:58;12.34;78.50
75155;HTU21D;63735;44.730;37.818;2023-05-16T03:17:24;12.51;78.37
75155;HTU21D;63735;44.730;37.818;2023-05-16T03:19:50;12.69;78.23
75155;HTU21D;63735;44.730;37.818;2023-05-16T03:22:16;12.86;78.07
75155;HTU21D;63735;44.730;37.818;2023-05-16T03:24:42;12.97;78.01
75155;HTU21D;63735;44.730;37.818;2023-05-16T03:27:10;13.11;78.01
75155;HTU21D;63735;44.730;37.818;2023-05-16T03:29:36;13.27;77.89
75155;HTU21D;63735;44.730;37.818;2023-05-16T03:32:02;13.45;77.74
75155;HTU21D;63735;44.730;37.818;2023-05-16T03:34:29;13.61;77.59
75155;HTU21D;63735;44.730;37.818;2023-05-16T03:36:55;13.78;77.45
75155;HTU21D;63735;44.730;37.818;2023-05-16T03:39:22;13.93;77.28
75155;HTU21D;63735;44.730;37.818;2023-05-16T03:41:48;14.10;77.10
75155;HTU21D;63735;44.730;37.818;2023-05-16T03:44:14;14.23;76.95
75155;HTU21D;63735;44.730;37.818;2023-05-16T03:46:40;14.37;76.82
75155;HTU21D;63735;44.730;37.818;2023-05-16T03:49:06;14.44;76.77
75155;HTU21D;63735;44.730;37.818;2023-05-16T03:51:31;14.52;76.79
75155;HTU21D;63735;44.730;37.818;2023-05-16T03:53:57;14.62;76.82
75155;HTU21D;63735;44.730;37.818;2023-05-16T03:56:23;14.77;76.70
75155;HTU21D;63735;44.730;37.818;2023-05-16T03:58:50;14.91;76.57
75155;HTU21D;63735;44.730;37.818;2023-05-16T04:01:16;14.98;76.48
75155;HTU21D;63735;44.730;37.818;2023-05-16T04:03:42;14.99;76.50
75155;HTU21D;63735;44.730;37.818;2023-05-16T04:06:08;14.99;76.53
75155;HTU21D;63735;44.730;37.818;2023-05-16T04:08:34;15.03;76.43
75155;HTU21D;63735;44.730;37.818;2023-05-16T04:11:00;15.06;76.35
75155;HTU21D;63735;44.730;37.818;2023-05-16T04:13:26;15.09;76.24
75155;HTU21D;63735;44.730;37.818;2023-05-16T04:15:52;15.09;76.26
75155;HTU21D;63735;44.730;37.818;2023-05-16T04:18:20;15.08;76.31
75155;HTU21D;63735;44.730;37.818;2023-05-16T04:20:46;15.06;76.37
75155;HTU21D;63735;44.730;37.818;2023-05-16T04:23:12;15.00;76.50
75155;HTU21D;63735;44.730;37.818;2023-05-16T04:25:38;15.01;76.67
75155;HTU21D;63735;44.730;37.818;2023-05-16T04:28:04;15.03;76.69
75155;HTU21D;63735;44.730;37.818;2023-05-16T04:30:30;15.09;76.61
75155;HTU21D;63735;44.730;37.818;2023-05-16T04:32:56;15.16;76.50
75155;HTU21D;63735;44.730;37.818;2023-05-16T04:35:25;15.32;76.35
75155;HTU21D;63735;44.730;37.818;2023-05-16T04:37:51;15.47;76.12
75155;HTU21D;63735;44.730;37.818;2023-05-16T04:40:17;15.62;75.96
75155;HTU21D;63735;44.730;37.818;2023-05-16T04:42:42;15.82;75.70
75155;HTU21D;63735;44.730;37.818;2023-05-16T04:45:09;16.02;75.38
75155;HTU21D;63735;44.730;37.818;2023-05-16T04:47:39;16.19;75.07
75155;HTU21D;63735;44.730;37.818;2023-05-16T04:50:06;16.39;74.70
75155;HTU21D;63735;44.730;37.818;2023-05-16T04:52:33;16.55;74.12
75155;HTU21D;63735;44.730;37.818;2023-05-16T04:54:59;16.65;73.66
75155;HTU21D;63735;44.730;37.818;2023-05-16T04:57:26;16.72;73.24
75155;HTU21D;63735;44.730;37.818;2023-05-16T04:59:52;16.80;72.83
75155;HTU21D;63735;44.730;37.818;2023-05-16T05:02:18;16.81;72.32
75155;HTU21D;63735;44.730;37.818;2023-05-16T05:04:44;16.77;72.00
75155;HTU21D;63735;44.730;37.818;2023-05-16T05:07:10;16.82;71.56
75155;HTU21D;63735;44.730;37.818;2023-05-16T05:09:35;16.95;71.24
75155;HTU21D;63735;44.730;37.818;2023-05-16T05:12:01;17.01;70.69
75155;HTU21D;63735;44.730;37.818;2023-05-16T05:14:28;17.02;70.51
75155;HTU21D;63735;44.730;37.818;2023-05-16T05:16:54;17.06;70.13
75155;HTU21D;63735;44.730;37.818;2023-05-16T05:19:20;17.13;69.74
75155;HTU21D;63735;44.730;37.818;2023-05-16T05:21:46;17.21;69.48
75155;HTU21D;63735;44.730;37.818;2023-05-16T05:24:11;17.32;69.07
75155;HTU21D;63735;44.730;37.818;2023-05-16T05:26:37;17.37;68.82
75155;HTU21D;63735;44.730;37.818;2023-05-16T05:29:07;17.51;68.36
75155;HTU21D;63735;44.730;37.818;2023-05-16T05:31:33;17.62;67.75
75155;HTU21D;63735;44.730;37.818;2023-05-16T05:33:59;17.66;66.95
75155;HTU21D;63735;44.730;37.818;2023-05-16T05:36:25;17.91;66.63
75155;HTU21D;63735;44.730;37.818;2023-05-16T05:38:51;18.35;65.64
75155;HTU21D;63735;44.730;37.818;2023-05-16T05:41:17;18.99;63.80
75155;HTU21D;63735;44.730;37.818;2023-05-16T05:43:43;20.19;59.78
75155;HTU21D;63735;44.730;37.818;2023-05-16T05:46:09;21.70;55.17
75155;HTU21D;63735;44.730;37.818;2023-05-16T05:48:35;23.12;51.31
75155;HTU21D;63735;44.730;37.818;2023-05-16T05:51:01;24.41;48.93
75155;HTU21D;63735;44.730;37.818;2023-05-16T05:53:27;25.44;46.98
75155;HTU21D;63735;44.730;37.818;2023-05-16T05:55:53;26.40;45.66
75155;HTU21D;63735;44.730;37.818;2023-05-16T05:58:20;26.99;44.88
75155;HTU21D;63735;44.730;37.818;2023-05-16T06:00:46;27.32;43.45
75155;HTU21D;63735;44.730;37.818;2023-05-16T06:03:12;27.07;43.60
75155;HTU21D;63735;44.730;37.818;2023-05-16T06:05:39;26.85;42.85
75155;HTU21D;63735;44.730;37.818;2023-05-16T06:08:05;27.05;43.21
75155;HTU21D;63735;44.730;37.818;2023-05-16T06:10:30;27.23;43.25
75155;HTU21D;63735;44.730;37.818;2023-05-16T06:12:56;27.39;42.59
75155;HTU21D;63735;44.730;37.818;2023-05-16T06:15:23;27.54;40.97
75155;HTU21D;63735;44.730;37.818;2023-05-16T06:17:49;27.20;41.48
75155;HTU21D;63735;44.730;37.818;2023-05-16T06:20:15;27.32;41.87
75155;HTU21D;63735;44.730;37.818;2023-05-16T06:22:41;27.21;41.49
75155;HTU21D;63735;44.730;37.818;2023-05-16T06:25:08;26.68;41.40
75155;HTU21D;63735;44.730;37.818;2023-05-16T06:27:33;26.66;41.90
75155;HTU21D;63735;44.730;37.818;2023-05-16T06:29:59;26.87;41.88
75155;HTU21D;63735;44.730;37.818;2023-05-16T06:32:25;26.73;42.15
75155;HTU21D;63735;44.730;37.818;2023-05-16T06:34:51;27.17;41.49
75155;HTU21D;63735;44.730;37.818;2023-05-16T06:37:17;27.06;41.29
75155;HTU21D;63735;44.730;37.818;2023-05-16T06:39:43;27.08;41.36
75155;HTU21D;63735;44.730;37.818;2023-05-16T06:42:09;26.75;41.13
75155;HTU21D;63735;44.730;37.818;2023-05-16T06:44:36;26.24;41.81
75155;HTU21D;63735;44.730;37.818;2023-05-16T06:47:02;25.83;42.52
75155;HTU21D;63735;44.730;37.818;2023-05-16T06:49:28;25.50;43.36
75155;HTU21D;63735;44.730;37.818;2023-05-16T06:51:54;25.80;43.19
75155;HTU21D;63735;44.730;37.818;2023-05-16T06:54:20;25.57;43.64
75155;HTU21D;63735;44.730;37.818;2023-05-16T06:56:46;25.24;44.42
75155;HTU21D;63735;44.730;37.818;2023-05-16T06:59:12;24.74;45.00
75155;HTU21D;63735;44.730;37.818;2023-05-16T07:01:38;23.91;46.77
75155;HTU21D;63735;44.730;37.818;2023-05-16T07:04:04;23.09;48.58
75155;HTU21D;63735;44.730;37.818;2023-05-16T07:06:30;22.26;50.96
75155;HTU21D;63735;44.730;37.818;2023-05-16T07:08:56;21.28;53.79
75155;HTU21D;63735;44.730;37.818;2023-05-16T07:11:22;20.69;55.74
75155;HTU21D;63735;44.730;37.818;2023-05-16T07:13:47;20.31;57.22
75155;HTU21D;63735;44.730;37.818;2023-05-16T07:16:13;20.19;57.81
75155;HTU21D;63735;44.730;37.818;2023-05-16T07:18:39;19.89;58.54
75155;HTU21D;63735;44.730;37.818;2023-05-16T07:21:05;19.68;59.08
75155;HTU21D;63735;44.730;37.818;2023-05-16T07:23:31;19.52;59.64
75155;HTU21D;63735;44.730;37.818;2023-05-16T07:25:58;19.47;59.80
75155;HTU21D;63735;44.730;37.818;2023-05-16T07:28:24;19.43;60.15
75155;HTU21D;63735;44.730;37.818;2023-05-16T07:30:50;19.24;60.50
75155;HTU21D;63735;44.730;37.818;2023-05-16T07:33:16;19.14;60.88
75155;HTU21D;63735;44.730;37.818;2023-05-16T07:35:42;19.36;60.75
75155;HTU21D;63735;44.730;37.818;2023-05-16T07:38:08;19.33;60.65
75155;HTU21D;63735;44.730;37.818;2023-05-16T07:40:34;19.35;60.75
75155;HTU21D;63735;44.730;37.818;2023-05-16T07:43:00;19.32;60.79
75155;HTU21D;63735;44.730;37.818;2023-05-16T07:45:27;19.16;61.46
75155;HTU21D;63735;44.730;37.818;2023-05-16T07:47:53;19.29;61.50
75155;HTU21D;63735;44.730;37.818;2023-05-16T07:50:19;19.38;61.37
75155;HTU21D;63735;44.730;37.818;2023-05-16T07:52:45;19.30;61.67
75155;HTU21D;63735;44.730;37.818;2023-05-16T07:55:11;19.38;61.68
75155;HTU21D;63735;44.730;37.818;2023-05-16T07:57:38;19.50;61.30
75155;HTU21D;63735;44.730;37.818;2023-05-16T08:00:04;19.44;61.73
75155;HTU21D;63735;44.730;37.818;2023-05-16T08:02:37;19.53;61.33
75155;HTU21D;63735;44.730;37.818;2023-05-16T08:05:03;19.40;61.86
75155;HTU21D;63735;44.730;37.818;2023-05-16T08:07:30;19.32;62.25
75155;HTU21D;63735;44.730;37.818;2023-05-16T08:09:56;19.38;62.21
75155;HTU21D;63735;44.730;37.818;2023-05-16T08:12:23;19.38;62.02
75155;HTU21D;63735;44.730;37.818;2023-05-16T08:14:49;19.51;62.07
75155;HTU21D;63735;44.730;37.818;2023-05-16T08:17:15;19.54;61.76
75155;HTU21D;63735;44.730;37.818;2023-05-16T08:19:41;19.40;62.22
75155;HTU21D;63735;44.730;37.818;2023-05-16T08:22:08;19.55;61.99
75155;HTU21D;63735;44.730;37.818;2023-05-16T08:24:34;19.48;62.29
75155;HTU21D;63735;44.730;37.818;2023-05-16T08:27:00;19.50;62.26
75155;HTU21D;63735;44.730;37.818;2023-05-16T08:29:26;19.68;61.95
75155;HTU21D;63735;44.730;37.818;2023-05-16T08:31:52;19.69;61.72
75155;HTU21D;63735;44.730;37.818;2023-05-16T08:34:18;19.38;62.23
75155;HTU21D;63735;44.730;37.818;2023-05-16T08:36:44;19.02;63.24
75155;HTU21D;63735;44.730;37.818;2023-05-16T08:39:10;19.06;63.53
75155;HTU21D;63735;44.730;37.818;2023-05-16T08:41:36;19.11;63.49
75155;HTU21D;63735;44.730;37.818;2023-05-16T08:44:03;19.17;63.22
75155;HTU21D;63735;44.730;37.818;2023-05-16T08:46:31;19.01;63.63
75155;HTU21D;63735;44.730;37.818;2023-05-16T08:48:59;18.93;64.06
75155;HTU21D;63735;44.730;37.818;2023-05-16T08:51:27;18.86;64.09
75155;HTU21D;63735;44.730;37.818;2023-05-16T08:53:59;18.83;64.34
75155;HTU21D;63735;44.730;37.818;2023-05-16T08:56:28;18.84;64.57
75155;HTU21D;63735;44.730;37.818;2023-05-16T08:58:55;18.98;64.27
75155;HTU21D;63735;44.730;37.818;2023-05-16T09:01:22;19.25;63.86
75155;HTU21D;63735;44.730;37.818;2023-05-16T09:03:51;19.25;63.83
75155;HTU21D;63735;44.730;37.818;2023-05-16T09:06:17;19.37;63.77
75155;HTU21D;63735;44.730;37.818;2023-05-16T09:08:44;19.41;63.53
75155;HTU21D;63735;44.730;37.818;2023-05-16T09:11:11;19.26;64.05
75155;HTU21D;63735;44.730;37.818;2023-05-16T09:13:38;19.28;64.22
75155;HTU21D;63735;44.730;37.818;2023-05-16T09:16:10;19.42;63.58
75155;HTU21D;63735;44.730;37.818;2023-05-16T09:18:37;19.30;63.81
75155;HTU21D;63735;44.730;37.818;2023-05-16T09:21:04;19.14;64.18
75155;HTU21D;63735;44.730;37.818;2023-05-16T09:23:32;19.08;64.24
75155;HTU21D;63735;44.730;37.818;2023-05-16T09:25:58;19.06;64.47
75155;HTU21D;63735;44.730;37.818;2023-05-16T09:28:24;19.20;64.53
75155;HTU21D;63735;44.730;37.818;2023-05-16T09:30:51;19.40;64.53
75155;HTU21D;63735;44.730;37.818;2023-05-16T09:33:21;19.41;64.31
75155;HTU21D;63735;44.730;37.818;2023-05-16T09:35:58;19.47;64.34
75155;HTU21D;63735;44.730;37.818;2023-05-16T09:38:26;19.71;64.14
75155;HTU21D;63735;44.730;37.818;2023-05-16T09:40:53;19.92;63.80
75155;HTU21D;63735;44.730;37.818;2023-05-16T09:43:23;20.00;63.63
75155;HTU21D;63735;44.730;37.818;2023-05-16T09:45:50;19.98;63.77
75155;HTU21D;63735;44.730;37.818;2023-05-16T09:48:16;19.77;63.89
75155;HTU21D;63735;44.730;37.818;2023-05-16T09:50:48;19.53;64.50
75155;HTU21D;63735;44.730;37.818;2023-05-16T09:53:17;19.40;64.69
75155;HTU21D;63735;44.730;37.818;2023-05-16T09:55:44;19.31;64.59
75155;HTU21D;63735;44.730;37.818;2023-05-16T09:58:09;19.11;65.01
75155;HTU21D;63735;44.730;37.818;2023-05-16T10:00:36;18.89;65.69
75155;HTU21D;63735;44.730;37.818;2023-05-16T10:03:02;18.98;65.71
75155;HTU21D;63735;44.730;37.818;2023-05-16T10:05:29;19.01;65.62
75155;HTU21D;63735;44.730;37.818;2023-05-16T10:07:56;19.24;65.57
75155;HTU21D;63735;44.730;37.818;2023-05-16T10:10:23;19.23;65.67
75155;HTU21D;63735;44.730;37.818;2023-05-16T10:12:50;19.06;65.93
75155;HTU21D;63735;44.730;37.818;2023-05-16T10:15:17;18.85;66.35
75155;HTU21D;63735;44.730;37.818;2023-05-16T10:17:44;18.92;66.59
75155;HTU21D;63735;44.730;37.818;2023-05-16T10:20:14;19.12;66.24
75155;HTU21D;63735;44.730;37.818;2023-05-16T10:22:42;19.27;66.27
75155;HTU21D;63735;44.730;37.818;2023-05-16T10:27:35;19.25;65.82
75155;HTU21D;63735;44.730;37.818;2023-05-16T10:30:02;19.22;65.78
75155;HTU21D;63735;44.730;37.818;2023-05-16T10:32:30;19.07;65.90
75155;HTU21D;63735;44.730;37.818;2023-05-16T10:34:56;19.16;66.01
75155;HTU21D;63735;44.730;37.818;2023-05-16T10:37:23;19.23;65.74
75155;HTU21D;63735;44.730;37.818;2023-05-16T10:39:50;19.17;65.84
75155;HTU21D;63735;44.730;37.818;2023-05-16T10:42:17;19.10;66.17
75155;HTU21D;63735;44.730;37.818;2023-05-16T10:44:44;19.25;66.11
75155;HTU21D;63735;44.730;37.818;2023-05-16T10:47:10;19.33;65.84
75155;HTU21D;63735;44.730;37.818;2023-05-16T10:49:40;19.26;66.19
75155;HTU21D;63735;44.730;37.818;2023-05-16T10:52:10;19.38;65.95
75155;HTU21D;63735;44.730;37.818;2023-05-16T10:54:45;19.43;65.62
75155;HTU21D;63735;44.730;37.818;2023-05-16T10:57:18;19.40;65.85
75155;HTU21D;63735;44.730;37.818;2023-05-16T10:59:48;19.36;65.62
75155;HTU21D;63735;44.730;37.818;2023-05-16T11:02:39;19.26;65.69
75155;HTU21D;63735;44.730;37.818;2023-05-16T11:05:06;19.23;66.05
75155;HTU21D;63735;44.730;37.818;2023-05-16T11:07:37;19.25;66.55
75155;HTU21D;63735;44.730;37.818;2023-05-16T11:10:08;19.27;66.93
75155;HTU21D;63735;44.730;37.818;2023-05-16T11:12:45;19.51;66.56
75155;HTU21D;63735;44.730;37.818;2023-05-16T11:15:24;19.63;66.99
75155;HTU21D;63735;44.730;37.818;2023-05-16T11:18:22;19.74;66.43
75155;HTU21D;63735;44.730;37.818;2023-05-16T11:20:50;20.11;66.38
75155;HTU21D;63735;44.730;37.818;2023-05-16T11:23:22;20.61;65.21
75155;HTU21D;63735;44.730;37.818;2023-05-16T11:25:56;20.78;64.59
75155;HTU21D;63735;44.730;37.818;2023-05-16T11:28:24;20.85;64.01
75155;HTU21D;63735;44.730;37.818;2023-05-16T11:30:52;20.86;63.88
75155;HTU21D;63735;44.730;37.818;2023-05-16T11:33:21;21.01;63.15
75155;HTU21D;63735;44.730;37.818;2023-05-16T11:36:07;21.52;62.00
75155;HTU21D;63735;44.730;37.818;2023-05-16T11:38:34;21.93;60.50
75155;HTU21D;63735;44.730;37.818;2023-05-16T11:41:04;21.78;60.19
75155;HTU21D;63735;44.730;37.818;2023-05-16T11:43:43;21.63;60.31
75155;HTU21D;63735;44.730;37.818;2023-05-16T11:46:15;21.52;60.00
75155;HTU21D;63735;44.730;37.818;2023-05-16T11:48:42;20.78;61.55
75155;HTU21D;63735;44.730;37.818;2023-05-16T11:51:10;20.30;62.82
75155;HTU21D;63735;44.730;37.818;2023-05-16T11:53:37;19.96;63.70
75155;HTU21D;63735;44.730;37.818;2023-05-16T11:56:03;19.77;64.28
75155;HTU21D;63735;44.730;37.818;2023-05-16T11:58:29;19.67;64.66
75155;HTU21D;63735;44.730;37.818;2023-05-16T12:00:56;19.45;64.85
75155;HTU21D;63735;44.730;37.818;2023-05-16T12:03:22;19.24;65.30
75155;HTU21D;63735;44.730;37.818;2023-05-16T12:05:52;19.15;65.51
75155;HTU21D;63735;44.730;37.818;2023-05-16T12:08:19;19.13;65.78
75155;HTU21D;63735;44.730;37.818;2023-05-16T12:10:48;19.15;65.58
75155;HTU21D;63735;44.730;37.818;2023-05-16T12:13:15;19.21;65.85
75155;HTU21D;63735;44.730;37.818;2023-05-16T12:15:41;19.30;65.33
75155;HTU21D;63735;44.730;37.818;2023-05-16T12:18:08;19.30;65.63
75155;HTU21D;63735;44.730;37.818;2023-05-16T12:20:35;19.21;66.05
75155;HTU21D;63735;44.730;37.818;2023-05-16T12:23:01;18.93;66.49
75155;HTU21D;63735;44.730;37.818;2023-05-16T12:25:31;18.85;66.77
75155;HTU21D;63735;44.730;37.818;2023-05-16T12:27:59;18.77;66.96
75155;HTU21D;63735;44.730;37.818;2023-05-16T12:30:26;18.59;67.58
75155;HTU21D;63735;44.730;37.818;2023-05-16T12:33:01;18.58;67.62
75155;HTU21D;63735;44.730;37.818;2023-05-16T12:35:32;18.48;67.78
75155;HTU21D;63735;44.730;37.818;2023-05-16T12:37:59;18.64;67.59
75155;HTU21D;63735;44.730;37.818;2023-05-16T12:40:28;18.61;67.97
75155;HTU21D;63735;44.730;37.818;2023-05-16T12:42:54;18.77;67.68
75155;HTU21D;63735;44.730;37.818;2023-05-16T12:45:27;18.67;67.64
75155;HTU21D;63735;44.730;37.818;2023-05-16T12:47:54;18.66;67.53
75155;HTU21D;63735;44.730;37.818;2023-05-16T12:50:20;18.38;68.39
75155;HTU21D;63735;44.730;37.818;2023-05-16T12:52:51;18.27;68.67
75155;HTU21D;63735;44.730;37.818;2023-05-16T12:55:19;18.17;68.56
75155;HTU21D;63735;44.730;37.818;2023-05-16T12:57:45;18.04;68.87
75155;HTU21D;63735;44.730;37.818;2023-05-16T13:00:13;17.90;69.10
75155;HTU21D;63735;44.730;37.818;2023-05-16T13:02:40;17.82;69.13
75155;HTU21D;63735;44.730;37.818;2023-05-16T13:05:07;17.70;69.36
75155;HTU21D;63735;44.730;37.818;2023-05-16T13:07:33;17.65;69.60
75155;HTU21D;63735;44.730;37.818;2023-05-16T13:10:00;17.75;69.98
75155;HTU21D;63735;44.730;37.818;2023-05-16T13:12:26;17.95;69.75
75155;HTU21D;63735;44.730;37.818;2023-05-16T13:14:52;17.97;70.09
75155;HTU21D;63735;44.730;37.818;2023-05-16T13:17:18;18.15;69.78
75155;HTU21D;63735;44.730;37.818;2023-05-16T13:19:44;18.20;69.49
75155;HTU21D;63735;44.730;37.818;2023-05-16T13:22:10;18.17;69.68
75155;HTU21D;63735;44.730;37.818;2023-05-16T13:24:36;18.14;70.10
75155;HTU21D;63735;44.730;37.818;2023-05-16T13:27:02;18.14;70.20
75155;HTU21D;63735;44.730;37.818;2023-05-16T13:29:28;18.17;70.02
75155;HTU21D;63735;44.730;37.818;2023-05-16T13:31:55;18.21;70.00
75155;HTU21D;63735;44.730;37.818;2023-05-16T13:34:21;18.22;69.92
75155;HTU21D;63735;44.730;37.818;2023-05-16T13:36:47;18.28;69.86
75155;HTU21D;63735;44.730;37.818;2023-05-16T13:39:14;18.42;69.66
75155;HTU21D;63735;44.730;37.818;2023-05-16T13:41:40;18.36;69.71
75155;HTU21D;63735;44.730;37.818;2023-05-16T13:44:07;18.20;69.95
75155;HTU21D;63735;44.730;37.818;2023-05-16T13:46:33;18.08;70.13
75155;HTU21D;63735;44.730;37.818;2023-05-16T13:48:59;18.00;70.37
75155;HTU21D;63735;44.730;37.818;2023-05-16T13:51:25;17.99;70.48
75155;HTU21D;63735;44.730;37.818;2023-05-16T13:53:51;17.92;70.64
75155;HTU21D;63735;44.730;37.818;2023-05-16T13:56:17;17.77;71.22
75155;HTU21D;63735;44.730;37.818;2023-05-16T13:58:42;17.84;71.16
75155;HTU21D;63735;44.730;37.818;2023-05-16T14:01:08;17.95;70.89
75155;HTU21D;63735;44.730;37.818;2023-05-16T14:03:34;17.85;71.10
75155;HTU21D;63735;44.730;37.818;2023-05-16T14:06:01;17.74;71.39
75155;HTU21D;63735;44.730;37.818;2023-05-16T14:08:27;17.67;71.66
75155;HTU21D;63735;44.730;37.818;2023-05-16T14:10:53;17.69;71.39
75155;HTU21D;63735;44.730;37.818;2023-05-16T14:13:19;17.69;71.44
75155;HTU21D;63735;44.730;37.818;2023-05-16T14:15:45;17.78;71.22
75155;HTU21D;63735;44.730;37.818;2023-05-16T14:18:11;17.85;71.03
75155;HTU21D;63735;44.730;37.818;2023-05-16T14:20:38;17.88;71.00
75155;HTU21D;63735;44.730;37.818;2023-05-16T14:23:04;17.90;70.89
75155;HTU21D;63735;44.730;37.818;2023-05-16T14:25:30;17.85;71.03
75155;HTU21D;63735;44.730;37.818;2023-05-16T14:27:56;17.78;71.28
75155;HTU21D;63735;44.730;37.818;2023-05-16T14:30:22;17.79;71.33
75155;HTU21D;63735;44.730;37.818;2023-05-16T14:32:48;17.81;71.41
75155;HTU21D;63735;44.730;37.818;2023-05-16T14:35:15;17.82;71.26
75155;HTU21D;63735;44.730;37.818;2023-05-16T14:37:40;17.75;71.42
75155;HTU21D;63735;44.730;37.818;2023-05-16T14:40:07;17.77;71.49
75155;HTU21D;63735;44.730;37.818;2023-05-16T14:42:33;17.79;71.45
75155;HTU21D;63735;44.730;37.818;2023-05-16T14:45:00;17.80;71.36
75155;HTU21D;63735;44.730;37.818;2023-05-16T14:47:26;17.81;71.26
75155;HTU21D;63735;44.730;37.818;2023-05-16T14:49:53;17.70;71.38
75155;HTU21D;63735;44.730;37.818;2023-05-16T14:52:20;17.63;71.63
75155;HTU21D;63735;44.730;37.818;2023-05-16T14:54:46;17.59;71.60
75155;HTU21D;63735;44.730;37.818;2023-05-16T14:57:12;17.52;71.68
75155;HTU21D;63735;44.730;37.818;2023-05-16T14:59:38;17.51;71.77
75155;HTU21D;63735;44.730;37.818;2023-05-16T15:02:04;17.50;71.79
75155;HTU21D;63735;44.730;37.818;2023-05-16T15:04:31;17.50;71.81
75155;HTU21D;63735;44.730;37.818;2023-05-16T15:06:57;17.51;71.71
75155;HTU21D;63735;44.730;37.818;2023-05-16T15:09:23;17.52;71.96
75155;HTU21D;63735;44.730;37.818;2023-05-16T15:11:49;17.54;71.83
75155;HTU21D;63735;44.730;37.818;2023-05-16T15:14:15;17.55;71.99
75155;HTU21D;63735;44.730;37.818;2023-05-16T15:16:41;17.53;71.88